createdAt,value
2022-12-23T00:00:31.348Z,41.40
2022-12-23T00:03:00.602Z,40.25
2022-12-23T00:05:37.323Z,41.55
2022-12-23T00:08:08.447Z,41.53
2022-12-23T00:10:42.145Z,44.80
2022-12-23T00:13:30.992Z,43.47
2022-12-23T00:16:18.155Z,46.15
2022-12-23T00:18:47.691Z,45.83
2022-12-23T00:21:19.016Z,45.50
2022-12-23T00:23:51.236Z,44.22
2022-12-23T00:26:26.614Z,43.78
2022-12-23T00:28:59.625Z,46.97
2022-12-23T00:31:28.893Z,48.75
2022-12-23T00:33:58.015Z,50.95
2022-12-23T00:36:32.988Z,49.17
2022-12-23T00:39:20.425Z,50.90
2022-12-23T00:42:07.975Z,62.50
2022-12-23T00:44:37.084Z,54.38
2022-12-23T00:47:06.233Z,56.03
2022-12-23T00:49:44.386Z,50.42
2022-12-23T00:52:19.300Z,48.20
2022-12-23T00:54:48.456Z,45.97
2022-12-23T00:57:17.532Z,47.42
2022-12-23T00:59:46.614Z,45.03
2022-12-23T01:02:34.249Z,43.35
2022-12-23T01:05:21.644Z,42.17
2022-12-23T01:07:50.726Z,45.47
2022-12-23T01:10:20.378Z,42.88
2022-12-23T01:12:49.429Z,44.10
2022-12-23T01:15:19.101Z,43.53
2022-12-23T01:17:48.177Z,43.45
2022-12-23T01:20:17.292Z,43.20
2022-12-23T01:22:46.599Z,41.17
2022-12-23T01:25:15.805Z,41.53
2022-12-23T01:27:44.980Z,43.28
2022-12-23T01:30:14.512Z,39.47
2022-12-23T01:32:43.686Z,39.05
2022-12-23T01:35:12.815Z,39.00
2022-12-23T01:37:42.328Z,39.60
2022-12-23T01:40:12.142Z,39.45
2022-12-23T01:42:47.786Z,38.22
2022-12-23T01:45:32.278Z,36.28
2022-12-23T01:48:07.457Z,34.80
2022-12-23T01:51:00.113Z,40.83
2022-12-23T01:53:36.717Z,35.13
2022-12-23T01:56:27.028Z,33.08
2022-12-23T01:59:09.676Z,35.10
2022-12-23T02:01:57.384Z,33.10
2022-12-23T02:04:28.083Z,34.63
2022-12-23T02:07:15.564Z,34.45
2022-12-23T02:09:44.704Z,34.03
2022-12-23T02:12:34.362Z,34.38
2022-12-23T02:15:40.136Z,32.75
2022-12-23T02:18:51.642Z,33.35
2022-12-23T02:22:04.061Z,31.58
2022-12-23T02:25:05.515Z,31.52
2022-12-23T02:28:03.587Z,31.27
2022-12-23T02:30:41.038Z,32.70
2022-12-23T02:33:46.229Z,29.05
2022-12-23T02:36:42.406Z,31.85
2022-12-23T02:39:43.835Z,31.63
2022-12-23T02:42:36.246Z,28.27
2022-12-23T02:45:36.633Z,30.30
2022-12-23T02:48:25.891Z,30.55
2022-12-23T02:50:57.893Z,29.60
2022-12-23T02:53:37.225Z,28.52
2022-12-23T02:56:10.152Z,28.10
2022-12-23T02:58:48.467Z,30.45
2022-12-23T03:01:20.636Z,28.40
2022-12-23T03:03:52.181Z,29.42
2022-12-23T03:06:34.253Z,27.20
2022-12-23T03:09:03.615Z,28.33
2022-12-23T03:11:56.003Z,26.40
2022-12-23T03:14:52.041Z,23.73
2022-12-23T03:17:50.203Z,24.00
2022-12-23T03:20:40.561Z,24.02
2022-12-23T03:23:28.451Z,23.35
2022-12-23T03:26:32.576Z,23.02
2022-12-23T03:29:16.655Z,21.25
2022-12-23T03:31:48.742Z,22.88
2022-12-23T03:34:26.933Z,21.17
2022-12-23T03:37:01.981Z,21.58
2022-12-23T03:39:43.187Z,22.90
2022-12-23T03:42:38.849Z,23.58
2022-12-23T03:45:38.499Z,21.88
2022-12-23T03:48:37.031Z,21.10
2022-12-23T03:51:25.806Z,23.83
2022-12-23T03:54:06.603Z,23.88
2022-12-23T03:56:45.719Z,21.10
2022-12-23T03:59:22.689Z,20.92
2022-12-23T04:02:26.068Z,20.52
2022-12-23T04:05:28.631Z,17.73
2022-12-23T04:08:49.768Z,17.65
2022-12-23T04:11:19.584Z,18.00
2022-12-23T04:13:50.099Z,17.10
2022-12-23T04:16:19.907Z,18.02
2022-12-23T04:18:49.107Z,18.00
2022-12-23T04:21:18.286Z,17.33
2022-12-23T04:23:47.515Z,17.05
2022-12-23T04:26:16.709Z,17.13
2022-12-23T04:28:45.870Z,16.85
2022-12-23T04:31:15.155Z,17.05
2022-12-23T04:33:44.369Z,15.32
2022-12-23T04:36:13.598Z,15.30
2022-12-23T04:38:42.810Z,14.95
2022-12-23T04:41:11.993Z,15.82
2022-12-23T04:43:41.208Z,16.02
2022-12-23T04:46:10.464Z,16.27
2022-12-23T04:48:39.637Z,17.65
2022-12-23T04:51:08.858Z,17.42
2022-12-23T04:53:40.801Z,15.10
2022-12-23T04:56:10.048Z,18.02
2022-12-23T04:58:39.439Z,16.88
2022-12-23T05:01:14.026Z,16.10
2022-12-23T05:03:43.858Z,15.95
2022-12-23T05:06:13.039Z,17.13
2022-12-23T05:08:42.332Z,16.17
2022-12-23T05:11:11.882Z,17.55
2022-12-23T05:13:41.056Z,16.70
2022-12-23T05:16:10.402Z,16.10
2022-12-23T05:18:39.690Z,15.45
2022-12-23T05:21:09.128Z,14.27
2022-12-23T05:23:38.746Z,15.27
2022-12-23T05:26:08.332Z,15.60
2022-12-23T05:28:37.608Z,16.55
2022-12-23T05:31:09.536Z,16.20
2022-12-23T05:33:39.157Z,17.40
2022-12-23T05:36:08.890Z,15.25
2022-12-23T05:38:38.251Z,14.77
2022-12-23T05:41:08.535Z,15.43
2022-12-23T05:43:37.747Z,14.45
2022-12-23T05:46:07.158Z,14.43
2022-12-23T05:48:36.368Z,15.23
2022-12-23T05:51:05.749Z,14.93
2022-12-23T05:53:34.970Z,14.40
2022-12-23T05:56:08.700Z,15.32
2022-12-23T05:58:37.925Z,14.95
2022-12-23T06:01:07.270Z,16.40
2022-12-23T06:03:36.771Z,15.88
2022-12-23T06:06:06.457Z,15.55
2022-12-23T06:08:36.159Z,15.63
2022-12-23T06:11:08.476Z,16.13
2022-12-23T06:13:37.698Z,15.18
2022-12-23T06:16:08.299Z,15.10
2022-12-23T06:18:37.586Z,15.65
2022-12-23T06:21:07.119Z,14.32
2022-12-23T06:23:37.217Z,15.02
2022-12-23T06:26:06.717Z,14.27
2022-12-23T06:28:35.875Z,13.50
2022-12-23T06:31:05.179Z,15.75
2022-12-23T06:33:34.463Z,14.30
2022-12-23T06:36:03.853Z,14.40
2022-12-23T06:38:33.179Z,14.50
2022-12-23T06:41:02.529Z,15.30
2022-12-23T06:43:31.676Z,14.45
2022-12-23T06:46:01.020Z,16.60
2022-12-23T06:48:32.953Z,15.35
2022-12-23T06:51:02.405Z,14.63
2022-12-23T06:53:31.598Z,14.43
2022-12-23T06:56:04.871Z,15.32
2022-12-23T06:58:34.121Z,15.35
2022-12-23T07:01:03.562Z,14.23
2022-12-23T07:03:32.939Z,16.05
2022-12-23T07:06:02.157Z,15.88
2022-12-23T07:08:31.559Z,15.55
2022-12-23T07:11:02.546Z,15.20
2022-12-23T07:13:34.258Z,15.57
2022-12-23T07:16:09.968Z,16.15
2022-12-23T07:18:39.301Z,15.05
2022-12-23T07:21:16.336Z,17.90
2022-12-23T07:23:50.706Z,13.30
2022-12-23T07:26:19.850Z,15.55
2022-12-23T07:28:52.254Z,26.73
2022-12-23T07:31:21.557Z,15.23
2022-12-23T07:33:50.839Z,15.50
2022-12-23T07:36:20.045Z,15.18
2022-12-23T07:38:52.941Z,15.30
2022-12-23T07:41:22.192Z,15.38
2022-12-23T07:43:51.380Z,14.32
2022-12-23T07:46:20.656Z,15.15
2022-12-23T07:48:49.976Z,16.20
2022-12-23T07:51:19.179Z,15.00
2022-12-23T07:53:52.472Z,15.23
2022-12-23T07:56:22.917Z,15.25
2022-12-23T07:58:54.763Z,15.75
2022-12-23T08:01:24.534Z,14.23
2022-12-23T08:03:53.841Z,14.00
2022-12-23T08:06:23.158Z,15.15
2022-12-23T08:08:53.805Z,16.10
2022-12-23T08:11:23.141Z,16.23
2022-12-23T08:13:53.704Z,15.80
2022-12-23T08:16:22.997Z,14.73
2022-12-23T08:18:52.213Z,13.70
2022-12-23T08:21:22.087Z,15.85
2022-12-23T08:23:52.421Z,16.55
2022-12-23T08:26:26.452Z,15.55
2022-12-23T08:28:55.729Z,16.63
2022-12-23T08:31:34.674Z,16.80
2022-12-23T08:34:04.130Z,15.70
2022-12-23T08:36:37.961Z,16.10
2022-12-23T08:39:11.422Z,16.75
2022-12-23T08:41:45.496Z,15.68
2022-12-23T08:44:16.219Z,15.85
2022-12-23T08:46:47.011Z,16.23
2022-12-23T08:49:16.533Z,16.38
2022-12-23T08:51:45.966Z,14.85
2022-12-23T08:54:15.629Z,14.90
2022-12-23T08:56:45.605Z,15.95
2022-12-23T08:59:20.043Z,14.88
2022-12-23T09:01:50.149Z,15.88
2022-12-23T09:04:19.691Z,15.75
2022-12-23T09:06:48.934Z,14.80
2022-12-23T09:09:18.451Z,15.40
2022-12-23T09:11:47.760Z,14.68
2022-12-23T09:14:20.324Z,14.77
2022-12-23T09:16:53.434Z,14.90
2022-12-23T09:19:22.687Z,16.35
2022-12-23T09:21:51.801Z,16.02
2022-12-23T09:24:20.957Z,16.17
2022-12-23T09:26:50.042Z,17.60
2022-12-23T09:29:19.227Z,17.73
2022-12-23T09:31:48.359Z,18.25
2022-12-23T09:34:17.529Z,18.95
2022-12-23T09:36:51.834Z,18.25
2022-12-23T09:39:25.086Z,19.37
2022-12-23T09:42:36.873Z,19.08
2022-12-23T09:45:08.895Z,19.42
2022-12-23T09:47:39.439Z,20.05
2022-12-23T09:50:26.856Z,21.85
2022-12-23T09:53:14.191Z,21.27
2022-12-23T09:56:37.843Z,21.48
2022-12-23T09:59:37.908Z,22.75
2022-12-23T10:02:43.216Z,28.00
2022-12-23T10:05:42.765Z,19.90
2022-12-23T10:08:35.592Z,18.95
2022-12-23T10:11:21.717Z,19.23
2022-12-23T10:14:28.831Z,19.38
2022-12-23T10:17:16.066Z,21.40
2022-12-23T10:19:50.959Z,19.98
2022-12-23T10:22:46.672Z,21.10
2022-12-23T10:25:42.455Z,19.88
2022-12-23T10:28:12.693Z,20.80
2022-12-23T10:34:06.910Z,25.83
2022-12-23T10:37:31.828Z,29.13
2022-12-23T10:40:22.534Z,27.80
2022-12-23T10:43:30.211Z,26.70
2022-12-23T10:46:05.099Z,24.70
2022-12-23T10:49:17.762Z,23.85
2022-12-23T10:52:00.287Z,25.70
2022-12-23T10:54:37.421Z,23.05
2022-12-23T10:57:10.081Z,24.60
2022-12-23T10:59:39.514Z,27.08
2022-12-23T11:02:14.984Z,26.85
2022-12-23T11:04:48.213Z,30.00
2022-12-23T11:07:47.265Z,31.27
2022-12-23T11:10:27.318Z,34.50
2022-12-23T11:12:56.940Z,32.75
2022-12-23T11:15:38.769Z,31.63
2022-12-23T11:18:14.021Z,28.77
2022-12-23T11:20:46.832Z,30.17
2022-12-23T11:23:32.248Z,29.50
2022-12-23T11:26:12.834Z,31.70
2022-12-23T11:28:54.629Z,30.48
2022-12-23T11:31:36.763Z,31.38
2022-12-23T11:34:20.752Z,30.98
2022-12-23T11:37:07.289Z,32.78
2022-12-23T11:39:39.736Z,32.35
2022-12-23T11:42:23.974Z,32.60
2022-12-23T11:44:57.409Z,34.67
2022-12-23T11:47:42.991Z,33.42
2022-12-23T11:50:36.615Z,34.28
2022-12-23T11:53:23.464Z,34.78
2022-12-23T11:56:04.602Z,35.30
2022-12-23T11:59:03.385Z,34.47
2022-12-23T12:01:32.817Z,42.45
2022-12-23T12:04:10.578Z,34.13
2022-12-23T12:06:54.196Z,35.95
2022-12-23T12:09:27.008Z,34.03
2022-12-23T12:12:23.036Z,34.45
2022-12-23T12:14:59.339Z,35.60
2022-12-23T12:17:53.201Z,35.22
2022-12-23T12:20:47.859Z,32.97
2022-12-23T12:23:55.474Z,34.90
2022-12-23T12:26:39.513Z,34.53
2022-12-23T12:29:27.305Z,36.65
2022-12-23T12:32:02.830Z,36.95
2022-12-23T12:35:07.946Z,35.03
2022-12-23T12:37:40.032Z,37.08
2022-12-23T12:40:39.966Z,34.75
2022-12-23T12:43:32.691Z,37.17
2022-12-23T12:46:04.755Z,37.58
2022-12-23T12:48:56.274Z,38.40
2022-12-23T12:51:52.606Z,38.03
2022-12-23T12:54:37.498Z,40.08
2022-12-23T12:57:06.783Z,38.17
2022-12-23T12:59:40.049Z,38.72
2022-12-23T13:03:00.443Z,39.22
2022-12-23T13:06:06.092Z,37.40
2022-12-23T13:09:21.631Z,36.13
2022-12-23T13:12:36.791Z,35.42
2022-12-23T13:15:22.133Z,36.85
2022-12-23T13:18:25.670Z,36.88
2022-12-23T13:21:16.927Z,37.63
2022-12-23T13:24:38.071Z,36.75
2022-12-23T13:27:21.188Z,38.58
2022-12-23T13:30:24.627Z,38.35
2022-12-23T13:33:19.209Z,40.63
2022-12-23T13:36:17.589Z,41.03
2022-12-23T13:39:21.845Z,41.00
2022-12-23T13:42:04.620Z,42.80
2022-12-23T13:44:36.771Z,42.67
2022-12-23T13:47:52.079Z,43.25
2022-12-23T13:50:46.352Z,44.05
2022-12-23T13:54:13.210Z,45.33
2022-12-23T13:56:55.076Z,45.53
2022-12-23T13:59:24.293Z,47.78
2022-12-23T14:01:54.409Z,45.13
2022-12-23T14:04:58.100Z,45.15
2022-12-23T14:07:33.074Z,45.97
2022-12-23T14:10:20.658Z,49.95
2022-12-23T14:12:53.095Z,45.47
2022-12-23T14:16:06.326Z,43.95
2022-12-23T14:18:49.877Z,43.75
2022-12-23T14:21:34.983Z,44.58
2022-12-23T14:24:40.906Z,43.08
2022-12-23T14:27:38.188Z,44.38
2022-12-23T14:30:42.074Z,48.08
2022-12-23T14:33:21.475Z,52.05
2022-12-23T14:35:54.328Z,51.95
2022-12-23T14:38:31.885Z,52.03
2022-12-23T14:41:39.879Z,55.47
2022-12-23T14:44:38.105Z,53.30
2022-12-23T14:47:40.589Z,53.22
2022-12-23T14:50:37.682Z,53.85
2022-12-23T14:53:27.496Z,52.05
2022-12-23T14:56:20.529Z,52.22
2022-12-23T14:59:13.909Z,54.03
2022-12-23T15:01:52.674Z,53.47
2022-12-23T15:04:29.508Z,50.97
2022-12-23T15:07:14.642Z,51.45
2022-12-23T15:10:19.198Z,53.67
2022-12-23T15:13:10.384Z,54.78
2022-12-23T15:15:58.998Z,51.50
2022-12-23T15:18:30.599Z,53.90
2022-12-23T15:21:11.421Z,53.92
2022-12-23T15:23:50.734Z,50.15
2022-12-23T15:26:26.436Z,49.30
2022-12-23T15:28:56.640Z,51.33
2022-12-23T15:31:39.290Z,51.53
2022-12-23T15:34:33.766Z,52.10
2022-12-23T15:37:03.208Z,51.03
2022-12-23T15:39:41.117Z,51.03
2022-12-23T15:42:32.312Z,50.63
2022-12-23T15:45:01.574Z,50.78
2022-12-23T15:47:44.009Z,51.88
2022-12-23T15:50:19.512Z,50.28
2022-12-23T15:52:51.661Z,52.30
2022-12-23T15:55:33.945Z,51.13
2022-12-23T15:58:06.081Z,50.65
2022-12-23T16:01:02.285Z,51.13
2022-12-23T16:03:42.695Z,49.60
2022-12-23T16:06:23.145Z,51.38
2022-12-23T16:09:28.011Z,50.33
2022-12-23T16:12:19.963Z,50.88
2022-12-23T16:14:58.686Z,49.75
2022-12-23T16:17:35.646Z,50.92
2022-12-23T16:20:27.591Z,50.47
2022-12-23T16:23:01.879Z,51.95
2022-12-23T16:25:35.215Z,50.22
2022-12-23T16:28:28.146Z,47.90
2022-12-23T16:30:59.699Z,44.78
2022-12-23T16:33:58.943Z,44.25
2022-12-23T16:36:27.991Z,43.08
2022-12-23T16:39:08.874Z,42.10
2022-12-23T16:41:38.479Z,42.13
2022-12-23T16:44:07.835Z,41.25
2022-12-23T16:46:43.927Z,39.22
2022-12-23T16:49:20.847Z,36.88
2022-12-23T16:51:50.190Z,38.70
2022-12-23T16:54:21.998Z,37.90
2022-12-23T16:56:51.175Z,37.58
2022-12-23T16:59:21.544Z,38.53
2022-12-23T17:01:51.572Z,36.90
2022-12-23T17:04:20.687Z,35.53
2022-12-23T17:06:49.869Z,34.95
2022-12-23T17:09:19.025Z,35.15
2022-12-23T17:11:55.792Z,35.08
2022-12-23T17:14:27.046Z,35.50
2022-12-23T17:16:56.247Z,34.45
2022-12-23T17:19:29.251Z,35.20
2022-12-23T17:22:04.332Z,34.55
2022-12-23T17:24:33.470Z,35.15
2022-12-23T17:27:02.597Z,35.78
2022-12-23T17:29:31.775Z,36.17
2022-12-23T17:32:00.960Z,35.75
2022-12-23T17:34:30.090Z,32.33
2022-12-23T17:37:01.682Z,32.92
2022-12-23T17:39:30.912Z,33.90
2022-12-23T17:42:00.133Z,32.38
2022-12-23T17:44:29.246Z,33.42
2022-12-23T17:47:00.251Z,32.22
2022-12-23T17:49:29.394Z,30.52
2022-12-23T17:51:58.526Z,37.75
2022-12-23T17:54:27.696Z,32.10
2022-12-23T17:56:56.858Z,30.08
2022-12-23T17:59:25.970Z,29.65
2022-12-23T18:01:55.227Z,30.23
2022-12-23T18:04:24.486Z,29.50
2022-12-23T18:07:02.709Z,31.55
2022-12-23T18:09:32.287Z,27.98
2022-12-23T18:12:01.459Z,28.08
2022-12-23T18:14:32.824Z,27.95
2022-12-23T18:17:02.163Z,27.33
2022-12-23T18:19:37.993Z,26.40
2022-12-23T18:22:07.271Z,25.55
2022-12-23T18:24:36.477Z,25.23
2022-12-23T18:27:18.053Z,24.90
2022-12-23T18:29:48.908Z,24.95
2022-12-23T18:32:28.640Z,24.73
2022-12-23T18:34:57.850Z,23.60
2022-12-23T18:37:27.217Z,24.85
2022-12-23T18:39:56.413Z,24.27
2022-12-23T18:42:25.609Z,23.70
2022-12-23T18:44:54.806Z,21.92
2022-12-23T18:47:23.953Z,23.23
2022-12-23T18:49:53.140Z,22.98
2022-12-23T18:52:22.318Z,21.30
2022-12-23T18:54:54.389Z,23.08
2022-12-23T18:57:24.136Z,22.38
2022-12-23T18:59:53.788Z,22.60
2022-12-23T19:02:23.311Z,20.60
2022-12-23T19:04:52.531Z,21.42
2022-12-23T19:07:21.724Z,22.17
2022-12-23T19:09:50.939Z,20.90
2022-12-23T19:12:20.342Z,19.60
2022-12-23T19:14:49.503Z,19.38
2022-12-23T19:17:18.924Z,20.10
2022-12-23T19:19:48.181Z,18.95
2022-12-23T19:22:17.370Z,18.45
2022-12-23T19:25:03.908Z,18.48
2022-12-23T19:27:35.292Z,16.98
2022-12-23T19:30:05.081Z,18.02
2022-12-23T19:32:34.570Z,18.17
2022-12-23T19:35:03.974Z,16.95
2022-12-23T19:37:34.896Z,17.25
2022-12-23T19:40:04.699Z,17.20
2022-12-23T19:42:34.992Z,19.73
2022-12-23T19:45:04.181Z,16.58
2022-12-23T19:47:33.481Z,15.63
2022-12-23T19:50:02.810Z,16.00
2022-12-23T19:52:32.050Z,15.65
2022-12-23T19:55:01.274Z,15.50
2022-12-23T19:57:30.655Z,14.98
2022-12-23T19:59:59.848Z,15.95
2022-12-23T20:02:29.105Z,14.95
2022-12-23T20:04:58.446Z,15.23
2022-12-23T20:07:27.649Z,15.80
2022-12-23T20:09:56.868Z,15.20
2022-12-23T20:12:27.406Z,15.50
2022-12-23T20:14:56.645Z,15.50
2022-12-23T20:17:25.821Z,14.30
2022-12-23T20:19:55.238Z,15.45
2022-12-23T20:22:24.388Z,15.23
2022-12-23T20:24:53.593Z,15.38
2022-12-23T20:27:27.600Z,13.55
2022-12-23T20:29:57.458Z,13.60
2022-12-23T20:32:26.686Z,15.18
2022-12-23T20:34:55.875Z,15.70
2022-12-23T20:37:25.045Z,15.35
2022-12-23T20:39:54.691Z,14.07
2022-12-23T20:42:23.911Z,14.38
2022-12-23T20:44:53.074Z,14.73
2022-12-23T20:47:22.269Z,15.15
2022-12-23T20:49:51.661Z,15.77
2022-12-23T20:52:20.835Z,15.82
2022-12-23T20:54:50.067Z,14.55
2022-12-23T20:57:19.732Z,14.77
2022-12-23T20:59:48.907Z,17.52
2022-12-23T21:02:18.759Z,16.00
2022-12-23T21:04:48.163Z,15.40
2022-12-23T21:07:17.684Z,14.82
2022-12-23T21:09:46.920Z,15.55
2022-12-23T21:12:16.141Z,15.40
2022-12-23T21:14:45.319Z,15.73
2022-12-23T21:17:14.539Z,15.23
2022-12-23T21:19:43.914Z,15.50
2022-12-23T21:22:13.139Z,15.02
2022-12-23T21:24:42.312Z,15.13
2022-12-23T21:27:11.476Z,15.73
2022-12-23T21:29:40.771Z,14.43
2022-12-23T21:32:09.945Z,14.95
2022-12-23T21:34:39.123Z,16.38
2022-12-23T21:37:08.338Z,16.48
2022-12-23T21:39:37.569Z,15.57
2022-12-23T21:42:07.599Z,15.80
2022-12-23T21:44:36.860Z,15.85
2022-12-23T21:47:06.101Z,15.30
2022-12-23T21:49:35.342Z,14.80
2022-12-23T21:52:04.644Z,15.52
2022-12-23T21:54:33.916Z,16.10
2022-12-23T21:57:03.143Z,15.40
2022-12-23T21:59:35.142Z,14.45
2022-12-23T22:02:05.146Z,15.63
2022-12-23T22:04:34.492Z,15.23
2022-12-23T22:07:03.678Z,14.80
2022-12-23T22:09:33.654Z,16.00
2022-12-23T22:12:04.892Z,16.33
2022-12-23T22:14:34.050Z,17.15
2022-12-23T22:17:03.313Z,17.35
2022-12-23T22:19:32.505Z,17.05
2022-12-23T22:22:01.588Z,17.42
2022-12-23T22:24:30.660Z,16.83
2022-12-23T22:26:59.773Z,18.20
2022-12-23T22:29:28.869Z,17.85
2022-12-23T22:31:58.021Z,16.83
2022-12-23T22:34:27.171Z,16.75
2022-12-23T22:36:56.213Z,16.85
2022-12-23T22:39:25.374Z,16.75
2022-12-23T22:41:54.546Z,16.45
2022-12-23T22:44:23.715Z,16.95
2022-12-23T22:46:53.023Z,16.52
2022-12-23T22:49:22.953Z,17.13
2022-12-23T22:51:52.029Z,16.55
2022-12-23T22:54:21.293Z,17.75
2022-12-23T22:56:50.501Z,16.35
2022-12-23T22:59:27.358Z,35.70
2022-12-23T23:01:56.487Z,20.27
2022-12-23T23:04:25.806Z,18.10
2022-12-23T23:06:54.974Z,18.88
2022-12-23T23:09:24.921Z,18.58
2022-12-23T23:11:54.488Z,19.55
2022-12-23T23:14:23.873Z,18.98
2022-12-23T23:16:53.176Z,17.33
2022-12-23T23:19:22.568Z,18.33
2022-12-23T23:21:51.737Z,18.45
2022-12-23T23:24:22.227Z,19.48
2022-12-23T23:26:53.672Z,19.75
2022-12-23T23:29:22.736Z,20.35
2022-12-23T23:31:52.011Z,20.75
2022-12-23T23:34:21.193Z,22.08
2022-12-23T23:36:50.415Z,21.95
2022-12-23T23:39:19.607Z,25.50
2022-12-23T23:41:49.353Z,31.30
2022-12-23T23:44:19.148Z,28.33
2022-12-23T23:46:49.897Z,27.15
2022-12-23T23:49:19.028Z,26.17
2022-12-23T23:51:48.157Z,24.65
2022-12-23T23:54:17.664Z,27.10
2022-12-23T23:56:46.745Z,26.02
2022-12-23T23:59:15.856Z,24.45
